Warning: include(top.php): failed to open stream: No such file or directory in /home/www/maribovejr.dk/wxmetar.php on line 38

Warning: include(): Failed opening 'top.php' for inclusion (include_path='.:/php/includes:/usr/share/php') in /home/www/maribovejr.dk/wxmetar.php on line 38

Nearby METAR Reports

 

KSJC - San Jose, California, USA
Distance from station: NØ 14km
Opdateret: 20/01/2020 06:53
Overskyet
Overskyet
 Vind retning S
Vind: S 6 km/h
Temperatur: 8°C
Dugpunkt: 5°C
Fugtighed: 82%
Barometer: 1017.9 hPa
Clouds: Overskyet
Visibility: 16 km
Cloud details: Few Clouds 853 m
Mest skyet 4877 m
Overskyet 7620 m
2020/01/20 05:53 KSJC 200553Z 19003KT 10SM FEW028 BKN160 OVC250 08/05 A3006 RMK AO2 SLP178 T00830050 10117 20083 58002 $
KNUQ - Moffett Nas/Mtn, California, USA
Distance from station: N 14km
Opdateret: 21/11/2019 17:56
NOT Current

 
Barometer: 1011.2 hPa
2019/11/21 16:56 KNUQ 211656Z AUTO A2986 RMK AO2 SLP116 PWINO $
 
KPAO - Palo Alto, California, USA
Distance from station: NNV 23km
Opdateret: 20/01/2020 05:47
NOT Current
Mest skyet
Mest skyet
 Vind retning calm
Vind: Vindstille
Temperatur: 8°C
Dugpunkt: 6°C
Fugtighed: 87%
Barometer: 1018.6 hPa
Clouds: Mest skyet
Visibility: 16 km
Cloud details: Mest skyet 3658 m
2020/01/20 04:47 KPAO 200447Z 00000KT 10SM BKN120 08/06 A3008 RMK LAST
KRHV - San Jose/Reid, California, USA
Distance from station: ØNØ 19km
Opdateret: 20/01/2020 06:50
Overskyet
Overskyet
 Vind retning calm
Vind: Vindstille
Temperatur: 8°C
Dugpunkt: 5°C
Fugtighed: 82%
Barometer: 1017.9 hPa
Clouds: Overskyet
Visibility: 16 km
Cloud details: Overskyet 4572 m
2020/01/20 05:50 KRHV 200550Z 00000KT 10SM OVC150 08/05 A3006 RMK LAST
 
KOAK - Oakland, California, USA
Distance from station: NNV 50km
Opdateret: 20/01/2020 06:53
Overskyet
Overskyet
 Vind retning Ø
Vind: Ø 15 km/h
Temperatur: 9°C
Wind Chill: 7°C
Dugpunkt: 4°C
Fugtighed: 71%
Barometer: 1018.3 hPa
Clouds: Overskyet
Visibility: 16 km
Cloud details: Few Clouds 366 m
Overskyet 6096 m
2020/01/20 05:53 KOAK 200553Z 09008KT 10SM FEW012 OVC200 09/04 A3007 RMK AO2 SLP181 T00940039 10111 20072 58004
KSQL - San Carlos Airpo, California, USA
Distance from station: NV 34km
Opdateret: 20/01/2020 07:35
Klart
Klart
 Vind retning calm
Vind: Vindstille
Temperatur: 8°C
Dugpunkt: 6°C
Fugtighed: 87%
Barometer: 1017.9 hPa
Clouds: Klart
Visibility: 16 km
2020/01/20 06:35 KSQL 200635Z AUTO 00000KT 10SM CLR 08/06 A3006 RMK AO2
 
KSFO - San Francisco, California, USA
Distance from station: NV 49km
Opdateret: 20/01/2020 06:56
Klart
Klart
 Vind retning ØNØ
Vind: ØNØ 11 km/h
Temperatur: 10°C
Wind Chill: 8°C
Dugpunkt: 6°C
Fugtighed: 76%
Barometer: 1017.9 hPa
Clouds: Klart
Visibility: 16 km
2020/01/20 05:56 KSFO 200556Z 07006KT 10SM CLR 10/06 A3006 RMK AO2 SLP180 T01000056 10111 20094 56002
KE16 - San Martin, California, USA
Distance from station: ØSØ 43km
Opdateret: 14/11/2019 10:35
NOT Current
Overskyet
Overskyet
 Vind retning SØ
Vind: SØ 11 km/h
Temperatur: 12°C
Dugpunkt: 10°C
Fugtighed: 88%
Barometer: 1017.6 hPa
Clouds: Overskyet
Visibility: 16 km
Cloud details: Overskyet 427 m
2019/11/14 09:35 KE16 140935Z AUTO 13006KT 10SM OVC014 12/10 A3005 RMK AO2
 
KWVI - Watsonville, California, USA
Distance from station: SSØ 44km
Opdateret: 20/01/2020 06:53
Klart
Klart
 Vind retning calm
Vind: Vindstille
Temperatur: 9°C
Dugpunkt: 5°C
Fugtighed: 76%
Barometer: 1017.9 hPa
Clouds: Klart
Visibility: 16 km
2020/01/20 05:53 KWVI 200553Z AUTO 00000KT 10SM CLR 09/05 A3006 RMK AO2 SLP178 T00890050 10128 20078 50002
KHAF - Half Moon Bay, California, USA
Distance from station: VNV 50km
Opdateret: 20/01/2020 07:40
Haze, Overskyet
Haze, Overskyet
 Vind retning NØ
Vind: NØ 7 km/h
Temperatur: 10°C
Wind Chill: 9°C
Dugpunkt: 7°C
Fugtighed: 82%
Barometer: 1017.6 hPa
Oversigt: Haze
Clouds: Overskyet
Visibility: 4 km
Cloud details: Few Clouds 61 m
Delvist skyet 2134 m
Overskyet 3353 m
2020/01/20 06:40 KHAF 200640Z AUTO 05004KT 2 1/2SM HZ FEW002 SCT070 OVC110 10/07 A3005 RMK AO2
 
KHWD - Hayward, California, USA
Distance from station: N 44km
Opdateret: 20/01/2020 06:54
Klart
Klart
 Vind retning NØ
Vind: NØ 15 km/h
Temperatur: 8°C
Wind Chill: 5°C
Dugpunkt: 4°C
Fugtighed: 76%
Barometer: 1017.9 hPa
Clouds: Klart
Visibility: 16 km
2020/01/20 05:54 KHWD 200554Z 04008KT 10SM CLR 08/04 A3006 RMK AO2 SLP187 T00830039 10117 20078 58001
KLVK - Livermore, California, USA
Distance from station: NNØ 51km
Opdateret: 20/01/2020 06:53
Mist, Klart
Mist, Klart
 Vind retning ØNØ
Vind: ØNØ 15 km/h
Temperatur: 5°C
Wind Chill: 2°C
Dugpunkt: 4°C
Fugtighed: 93%
Barometer: 1018.3 hPa
Oversigt: Mist
Clouds: Klart
Visibility: 6 km
2020/01/20 05:53 KLVK 200553Z AUTO 07008KT 4SM BR CLR 05/04 A3007 RMK AO2 SLP181 T00500039 10067 20050 58002